Agra, Oklahoma
Current Conditions -  °F | °C
As of 8:35 PM on Sunday 23 Nov 2014 (Local Time) from KCUH Reporting Station
Moderate Rain Moderate Rain  
Wind Chill: 32°   Ceiling: 800
Heat Index: 41°   Visibility: 10mi
Dew Point: 41°   Wind: 18mph
Humidity: 100%   Direction: 340°NNW
Pressure: 29.66"   Gusts: 31mph
Location:  35.89°N, 96.87°W
Report Text: KCUH 240235Z AUTO 34016G27KT 10SM RA SCT004 BKN008 OVC028 05/05 A2966 RMK AO2 P0001
Loading
Personal Weather Stations






























Interactive Weather Map New forecast layout! Learn more

10-Day Weather Forecast

Advertisements
Track Severe Weather on mobile